Time;durP1;ratioP1;P1;durP2;ratioP2;P2;SDS_P1;SDS_P2;PMS_P1;PMS_P2;Temp;Humidity;BMP_temperature;BMP_pressure;BME280_temperature;BME280_humidity;BME280_pressure;Samples;Min_cycle;Max_cycle;Signal;HPM_P1;HPM_P2
2022/12/26 00:01:25;;;;;;;13.40;6.50;;;11.90;92.60;;;;;;5049664;28;20025;-75
2022/12/26 00:03:51;;;;;;;13.73;5.95;;;11.90;92.50;;;;;;5049714;28;20030;-75
2022/12/26 00:06:20;;;;;;;19.05;6.40;;;12.00;92.60;;;;;;5049695;28;20075;-73
2022/12/26 00:08:47;;;;;;;13.05;6.40;;;11.90;92.50;;;;;;5049404;28;20484;-74
2022/12/26 00:11:14;;;;;;;11.57;5.85;;;11.90;92.60;;;;;;5050274;28;20033;-75
2022/12/26 00:13:39;;;;;;;12.65;6.57;;;12.00;92.60;;;;;;5048413;28;20025;-74
2022/12/26 00:16:19;;;;;;;10.98;5.75;;;11.90;92.90;;;;;;5050085;28;20386;-75
2022/12/26 00:18:45;;;;;;;17.83;7.57;;;11.90;92.90;;;;;;5044431;28;20032;-75
2022/12/26 00:21:12;;;;;;;14.68;5.75;;;11.90;92.90;;;;;;5049470;28;20460;-75
2022/12/26 00:23:39;;;;;;;10.40;5.78;;;11.90;92.90;;;;;;5049424;28;20063;-74
2022/12/26 00:26:07;;;;;;;12.73;5.93;;;12.10;92.60;;;;;;5049547;28;20492;-73
2022/12/26 00:28:32;;;;;;;10.65;7.13;;;12.00;92.80;;;;;;5042260;28;20503;-74
2022/12/26 00:31:01;;;;;;;12.63;5.90;;;12.00;92.60;;;;;;5049247;28;20044;-75
2022/12/26 00:33:27;;;;;;;13.75;7.50;;;12.10;92.60;;;;;;5048529;28;20032;-74
2022/12/26 00:35:52;;;;;;;13.30;6.73;;;12.00;92.90;;;;;;5049947;28;20025;-74
2022/12/26 00:38:18;;;;;;;15.53;6.90;;;12.10;92.50;;;;;;5049700;28;20382;-74
2022/12/26 00:40:43;;;;;;;15.10;6.87;;;12.10;92.60;;;;;;5049606;28;20025;-73
2022/12/26 00:43:09;;;;;;;12.80;6.60;;;12.00;92.70;;;;;;5049836;28;20071;-72
2022/12/26 00:45:35;;;;;;;11.38;5.82;;;12.00;92.70;;;;;;5049422;28;20048;-73
2022/12/26 00:48:01;;;;;;;17.05;6.53;;;12.10;92.50;;;;;;5049223;28;20040;-72
2022/12/26 00:50:27;;;;;;;17.07;6.23;;;12.00;92.60;;;;;;5047837;28;20064;-71
2022/12/26 00:52:52;;;;;;;18.80;7.37;;;12.10;92.50;;;;;;5049317;28;20492;-72
2022/12/26 00:55:19;;;;;;;17.13;7.10;;;12.00;92.50;;;;;;5048859;28;20461;-72
2022/12/26 00:57:44;;;;;;;19.27;6.50;;;11.90;92.80;;;;;;5049644;28;20082;-73
2022/12/26 01:00:11;;;;;;;15.20;6.63;;;11.90;92.90;;;;;;5049356;28;20104;-72
2022/12/26 01:02:36;;;;;;;13.40;6.18;;;11.90;92.90;;;;;;5049626;28;20778;-73
2022/12/26 01:05:03;;;;;;;16.37;6.40;;;12.00;92.60;;;;;;5048932;28;20124;-71
2022/12/26 01:07:35;;;;;;;12.38;6.80;;;12.00;92.70;;;;;;5048869;28;20135;-71
2022/12/26 01:10:06;;;;;;;14.48;6.32;;;11.90;92.80;;;;;;5047315;28;20523;-72
2022/12/26 01:12:32;;;;;;;13.25;6.28;;;12.00;92.60;;;;;;5041723;28;20131;-72
2022/12/26 01:14:59;;;;;;;22.27;6.50;;;12.10;92.50;;;;;;5046549;28;20096;-72
2022/12/26 01:17:26;;;;;;;14.18;6.50;;;12.10;92.40;;;;;;5047396;28;20491;-71
2022/12/26 01:19:52;;;;;;;13.73;6.28;;;12.10;92.50;;;;;;5048268;28;20044;-72
2022/12/26 01:22:18;;;;;;;16.77;6.32;;;12.10;92.30;;;;;;5048030;28;20017;-72
2022/12/26 01:24:44;;;;;;;10.67;6.03;;;12.10;92.60;;;;;;5046952;28;20043;-72
2022/12/26 01:27:10;;;;;;;10.17;6.40;;;12.20;92.20;;;;;;5047963;28;20029;-71
2022/12/26 01:29:35;;;;;;;17.37;5.57;;;12.20;92.10;;;;;;5047852;28;20279;-72
2022/12/26 01:32:01;;;;;;;11.40;5.53;;;12.10;92.40;;;;;;5047893;28;20865;-72
2022/12/26 01:34:26;;;;;;;16.20;6.60;;;12.30;92.30;;;;;;5047242;28;20029;-72
2022/12/26 01:36:53;;;;;;;22.10;7.30;;;12.10;92.30;;;;;;5048320;28;20171;-72
2022/12/26 01:39:19;;;;;;;12.85;6.25;;;12.20;92.20;;;;;;5047335;28;20484;-72
2022/12/26 01:41:45;;;;;;;14.70;6.25;;;12.20;92.20;;;;;;5048282;28;20100;-73
2022/12/26 01:44:48;;;;;;;15.50;5.87;;;12.30;92.00;;;;;;5036843;28;20115;-72
2022/12/26 01:47:14;;;;;;;16.15;6.38;;;12.40;91.90;;;;;;5046454;28;20274;-73
2022/12/26 01:49:43;;;;;;;17.88;6.13;;;12.30;92.10;;;;;;5047150;28;20029;-73
2022/12/26 01:52:18;;;;;;;12.68;6.13;;;12.40;92.00;;;;;;5046465;28;20061;-72
2022/12/26 01:54:48;;;;;;;9.95;5.97;;;12.40;92.10;;;;;;5046939;28;20040;-72
2022/12/26 01:57:23;;;;;;;13.73;5.53;;;12.50;92.00;;;;;;5046570;28;20530;-72
2022/12/26 01:59:50;;;;;;;15.43;6.03;;;12.30;92.40;;;;;;5047361;28;20051;-73
2022/12/26 02:02:17;;;;;;;12.48;6.28;;;12.30;92.50;;;;;;5047315;28;20028;-72
2022/12/26 02:07:37;;;;;;;11.13;5.53;;;12.30;92.50;;;;;;5047306;28;20075;-72
2022/12/26 02:10:07;;;;;;;10.82;5.28;;;12.40;92.40;;;;;;5047355;28;20041;-72
2022/12/26 02:12:34;;;;;;;14.55;6.20;;;12.30;92.40;;;;;;5042525;28;20104;-74
2022/12/26 02:15:02;;;;;;;12.10;5.82;;;12.30;92.50;;;;;;5047300;28;20587;-72
2022/12/26 02:17:28;;;;;;;14.10;6.18;;;12.30;92.60;;;;;;5047465;28;20029;-72
2022/12/26 02:20:20;;;;;;;17.10;6.53;;;12.20;92.60;;;;;;5047305;28;20035;-73
2022/12/26 02:22:55;;;;;;;9.70;5.90;;;12.30;92.70;;;;;;5047267;28;20068;-73
2022/12/26 02:25:53;;;;;;;11.40;6.03;;;12.30;92.60;;;;;;5047009;28;20108;-73
2022/12/26 02:28:42;;;;;;;12.95;5.85;;;12.20;92.70;;;;;;5029198;28;20041;-72
2022/12/26 02:31:19;;;;;;;9.73;5.78;;;12.10;92.80;;;;;;5045374;28;20044;-72
2022/12/26 02:33:59;;;;;;;14.07;5.45;;;12.20;92.80;;;;;;5046129;28;20082;-73
2022/12/26 02:36:58;;;;;;;14.43;5.90;;;12.10;93.00;;;;;;5046769;28;20032;-73
2022/12/26 02:39:30;;;;;;;15.85;6.30;;;12.20;92.80;;;;;;5045566;28;20021;-73
2022/12/26 02:42:27;;;;;;;16.70;6.22;;;12.30;92.80;;;;;;5043809;28;20064;-73
2022/12/26 02:48:21;;;;;;;17.33;6.20;;;12.10;93.00;;;;;;5044662;28;20032;-75
2022/12/26 03:14:37;;;;;;;12.32;7.07;;;12.30;92.90;;;;;;5048753;28;20070;-75
2022/12/26 03:17:18;;;;;;;7.55;5.00;;;12.30;92.70;;;;;;5044920;28;20098;-74
2022/12/26 03:19:58;;;;;;;16.48;5.55;;;12.20;92.80;;;;;;5048077;28;20029;-73
2022/12/26 03:22:39;;;;;;;14.05;6.97;;;12.20;92.80;;;;;;5050057;28;20033;-74
2022/12/26 03:27:52;;;;;;;;;;;12.10;92.90;;;;;;5049396;28;20083;-74
2022/12/26 03:33:02;;;;;;;12.23;4.47;;;12.30;92.40;;;;;;5049866;28;20067;-75
2022/12/26 03:35:31;;;;;;;15.70;5.47;;;12.30;92.40;;;;;;5047845;28;20029;-74
2022/12/26 03:38:07;;;;;;;15.13;6.22;;;12.30;92.50;;;;;;5049581;28;20025;-74
2022/12/26 04:19:23;;;;;;;10.95;5.18;;;11.90;92.70;;;;;;5048374;28;20027;-75
2022/12/26 04:44:33;;;;;;;15.93;6.45;;;11.70;92.80;;;;;;5046159;28;20048;-74
2022/12/26 04:46:59;;;;;;;8.95;4.78;;;11.70;92.70;;;;;;5048254;28;20021;-75
2022/12/26 04:52:13;;;;;;;10.40;5.40;;;11.70;92.90;;;;;;5047963;28;20043;-75
2022/12/26 04:54:39;;;;;;;10.95;5.53;;;11.70;92.60;;;;;;5047944;28;20017;-74
2022/12/26 04:57:05;;;;;;;13.73;4.85;;;11.80;92.50;;;;;;5048126;28;20087;-75
2022/12/26 04:59:31;;;;;;;8.60;4.60;;;11.90;92.20;;;;;;5048232;28;20037;-75
2022/12/26 05:10:26;;;;;;;12.55;5.22;;;11.80;92.20;;;;;;5046915;28;20090;-74
2022/12/26 05:12:52;;;;;;;;;;;11.80;92.40;;;;;;5048877;28;20059;-74
2022/12/26 05:15:19;;;;;;;11.23;5.32;;;11.70;92.30;;;;;;5048024;28;20388;-74
2022/12/26 05:28:42;;;;;;;13.10;4.47;;;11.80;92.20;;;;;;5048111;28;20055;-75
2022/12/26 05:31:11;;;;;;;11.25;5.30;;;11.80;92.10;;;;;;5046728;28;20056;-75
2022/12/26 05:36:24;;;;;;;8.90;5.40;;;11.80;92.20;;;;;;5048003;28;20392;-73
2022/12/26 05:38:50;;;;;;;8.23;4.63;;;11.80;92.20;;;;;;5046949;28;20480;-74
2022/12/26 05:41:16;;;;;;;13.37;5.43;;;11.80;92.10;;;;;;5045856;28;20013;-73
2022/12/26 05:43:42;;;;;;;6.90;4.78;;;11.80;92.20;;;;;;5041118;28;20858;-75
2022/12/26 05:46:07;;;;;;;14.43;5.13;;;11.90;92.20;;;;;;5047477;28;20033;-74
2022/12/26 05:48:33;;;;;;;8.97;4.97;;;11.80;92.20;;;;;;5047495;28;20054;-75
2022/12/26 05:51:00;;;;;;;11.10;5.10;;;11.80;92.30;;;;;;5047953;28;20041;-73
2022/12/26 05:53:27;;;;;;;9.45;4.95;;;11.80;92.30;;;;;;5046903;28;20512;-73
2022/12/26 05:55:53;;;;;;;11.27;5.05;;;11.80;92.20;;;;;;5047938;28;20041;-73
2022/12/26 05:58:19;;;;;;;13.57;6.07;;;11.70;92.30;;;;;;5045625;28;20373;-73
2022/12/26 06:00:45;;;;;;;9.98;4.13;;;11.70;92.30;;;;;;5048003;28;20024;-72
2022/12/26 06:03:10;;;;;;;11.43;4.90;;;11.80;92.10;;;;;;5047296;28;20037;-73
2022/12/26 06:05:36;;;;;;;9.63;4.87;;;11.80;92.00;;;;;;5046401;28;20025;-73
2022/12/26 06:08:02;;;;;;;12.27;5.33;;;11.80;92.10;;;;;;5047271;28;20025;-74
2022/12/26 06:10:28;;;;;;;11.70;5.80;;;11.90;91.90;;;;;;5046928;28;20045;-73
2022/12/26 06:12:58;;;;;;;15.48;5.47;;;11.80;92.00;;;;;;5047786;28;20111;-73
2022/12/26 06:15:24;;;;;;;13.48;5.40;;;11.80;91.90;;;;;;5047054;28;20028;-73
2022/12/26 06:17:49;;;;;;;12.47;4.57;;;11.90;91.70;;;;;;5047364;28;20055;-72
2022/12/26 06:20:15;;;;;;;8.47;5.50;;;12.00;91.80;;;;;;5047221;28;20040;-73
2022/12/26 06:22:40;;;;;;;16.70;5.47;;;11.90;91.80;;;;;;5046665;28;20033;-72
2022/12/26 06:25:07;;;;;;;11.20;4.97;;;12.00;91.70;;;;;;5047283;28;20029;-73
2022/12/26 06:27:32;;;;;;;11.55;4.68;;;12.00;91.60;;;;;;5041195;28;20021;-72
2022/12/26 06:29:58;;;;;;;10.67;5.13;;;12.00;91.60;;;;;;5045979;28;20500;-73
2022/12/26 06:32:24;;;;;;;18.73;5.80;;;11.90;91.70;;;;;;5046230;28;20029;-72
2022/12/26 06:34:49;;;;;;;12.50;5.13;;;11.90;91.70;;;;;;5047840;28;20020;-74
2022/12/26 06:37:15;;;;;;;9.33;4.47;;;11.80;91.70;;;;;;5045869;28;20876;-73
2022/12/26 06:39:41;;;;;;;11.38;5.22;;;11.80;91.60;;;;;;5050345;28;20017;-73
2022/12/26 06:42:06;;;;;;;13.33;4.60;;;11.90;91.70;;;;;;5051777;28;20031;-73
2022/12/26 06:44:32;;;;;;;9.80;4.87;;;11.90;91.40;;;;;;5047629;28;20060;-74
2022/12/26 06:46:57;;;;;;;9.10;4.20;;;11.80;91.50;;;;;;5051219;28;20124;-73
2022/12/26 06:49:25;;;;;;;16.23;5.27;;;11.80;91.50;;;;;;5046313;28;20040;-73
2022/12/26 06:51:51;;;;;;;10.40;4.43;;;11.90;91.30;;;;;;5051282;28;20586;-73
2022/12/26 06:54:16;;;;;;;11.00;4.55;;;11.90;91.40;;;;;;5047870;28;20052;-73
2022/12/26 06:56:42;;;;;;;14.63;5.27;;;11.90;91.30;;;;;;5050769;28;20492;-74
2022/12/26 06:59:10;;;;;;;7.37;4.40;;;11.90;91.30;;;;;;5050427;28;20029;-73
2022/12/26 07:01:36;;;;;;;14.48;4.50;;;12.00;91.20;;;;;;5049955;28;20037;-74
2022/12/26 07:04:03;;;;;;;11.00;4.30;;;12.00;91.00;;;;;;5049854;28;20477;-74
2022/12/26 07:06:32;;;;;;;7.65;3.75;;;12.00;91.10;;;;;;5050285;28;20404;-73
2022/12/26 07:09:03;;;;;;;8.70;4.53;;;12.00;90.80;;;;;;5048773;28;20041;-75
2022/12/26 07:11:34;;;;;;;7.97;4.25;;;12.10;90.70;;;;;;5047611;28;20119;-73
2022/12/26 07:14:00;;;;;;;8.27;4.50;;;12.10;90.60;;;;;;5049801;28;20104;-73
2022/12/26 07:16:26;;;;;;;20.15;5.45;;;12.20;90.60;;;;;;5049797;28;20033;-71
2022/12/26 07:18:54;;;;;;;9.75;4.57;;;12.20;90.60;;;;;;5050478;28;20456;-70
2022/12/26 07:21:20;;;;;;;10.60;4.13;;;12.20;90.60;;;;;;5045566;28;20013;-72
2022/12/26 07:23:46;;;;;;;9.20;4.47;;;12.20;90.50;;;;;;5050605;28;20390;-74
2022/12/26 07:26:11;;;;;;;10.33;4.20;;;12.20;90.50;;;;;;5050008;28;20036;-74
2022/12/26 07:28:37;;;;;;;12.00;4.20;;;12.20;90.30;;;;;;5049873;28;20820;-71
2022/12/26 07:31:03;;;;;;;7.67;4.17;;;12.20;90.30;;;;;;5050078;28;20041;-73
2022/12/26 07:33:29;;;;;;;7.43;3.88;;;12.20;90.40;;;;;;5049435;28;20068;-71
2022/12/26 07:36:00;;;;;;;7.43;4.25;;;12.30;90.00;;;;;;5049134;28;20690;-71
2022/12/26 07:38:25;;;;;;;7.50;4.85;;;12.30;90.00;;;;;;5049751;28;20036;-72
2022/12/26 07:40:56;;;;;;;9.97;4.13;;;12.30;90.20;;;;;;5051010;28;20579;-72
2022/12/26 07:43:23;;;;;;;13.63;4.10;;;12.40;90.00;;;;;;5050857;28;20484;-73
2022/12/26 07:45:48;;;;;;;;;;;12.40;89.80;;;;;;5050041;28;20107;-72
2022/12/26 07:48:14;;;;;;;6.30;3.85;;;12.40;90.10;;;;;;5050843;28;20070;-72
2022/12/26 07:50:40;;;;;;;13.67;4.17;;;12.50;89.20;;;;;;5049509;28;20543;-72
2022/12/26 07:53:05;;;;;;;6.13;3.60;;;12.60;89.10;;;;;;5051189;28;20017;-72
2022/12/26 07:55:31;;;;;;;10.30;3.90;;;12.60;88.60;;;;;;5049813;28;20025;-73
2022/12/26 07:57:56;;;;;;;8.20;3.60;;;12.70;88.70;;;;;;5050714;28;20056;-72
2022/12/26 08:00:22;;;;;;;8.30;3.77;;;12.70;88.90;;;;;;5050805;28;20025;-72
2022/12/26 08:02:49;;;;;;;7.87;4.77;;;12.70;88.90;;;;;;5050923;28;20392;-71
2022/12/26 08:05:16;;;;;;;9.57;3.97;;;12.70;88.60;;;;;;5050417;28;20029;-72
2022/12/26 08:07:42;;;;;;;8.00;4.40;;;12.70;89.00;;;;;;5050481;28;20407;-72
2022/12/26 08:10:08;;;;;;;8.50;4.67;;;12.70;88.90;;;;;;5050784;28;20033;-74
2022/12/26 08:12:33;;;;;;;8.32;3.88;;;12.90;88.30;;;;;;5049886;28;20031;-72
2022/12/26 08:14:59;;;;;;;8.90;4.50;;;12.90;88.50;;;;;;5050531;28;20041;-72
2022/12/26 08:17:25;;;;;;;10.80;4.03;;;12.90;88.50;;;;;;5050259;28;20022;-73
2022/12/26 08:19:50;;;;;;;9.50;3.90;;;12.90;88.20;;;;;;5050412;28;20108;-73
2022/12/26 08:22:16;;;;;;;10.40;4.40;;;13.00;87.90;;;;;;5050511;28;20098;-74
2022/12/26 08:24:41;;;;;;;14.97;4.50;;;13.10;87.80;;;;;;5050405;28;20512;-73
2022/12/26 08:27:07;;;;;;;7.77;4.13;;;13.10;87.90;;;;;;5050101;28;20112;-71
2022/12/26 08:29:33;;;;;;;10.23;3.67;;;13.10;87.80;;;;;;5049223;28;20523;-70
2022/12/26 08:31:58;;;;;;;8.30;4.03;;;13.20;88.10;;;;;;5050425;28;20754;-73
2022/12/26 08:34:24;;;;;;;11.03;4.47;;;13.20;87.80;;;;;;5050297;28;20064;-71
2022/12/26 08:36:50;;;;;;;11.33;4.73;;;13.20;87.30;;;;;;5049341;28;20021;-73
2022/12/26 08:39:16;;;;;;;7.28;3.40;;;13.30;87.20;;;;;;5030017;28;20038;-73
2022/12/26 08:41:42;;;;;;;6.90;3.50;;;13.30;87.10;;;;;;5036636;28;20082;-72
2022/12/26 08:44:08;;;;;;;13.30;4.30;;;13.40;86.90;;;;;;5049872;28;20271;-72
2022/12/26 08:46:34;;;;;;;;;;;13.50;86.70;;;;;;5050329;28;20020;-72
2022/12/26 08:48:59;;;;;;;10.27;3.85;;;13.40;86.30;;;;;;5049708;28;20726;-72
2022/12/26 08:51:25;;;;;;;15.97;4.23;;;13.50;86.80;;;;;;5049625;28;20055;-72
2022/12/26 08:53:53;;;;;;;8.00;4.03;;;13.50;85.70;;;;;;5050025;28;20025;-72
2022/12/26 08:56:22;;;;;;;11.82;4.13;;;13.50;86.10;;;;;;5048399;28;20329;-72
2022/12/26 08:58:48;;;;;;;7.45;3.58;;;13.60;85.60;;;;;;5049210;28;20107;-73
2022/12/26 09:01:17;;;;;;;12.07;4.23;;;13.60;85.50;;;;;;5047607;28;20128;-73
2022/12/26 09:03:43;;;;;;;9.80;3.95;;;13.60;86.40;;;;;;5049137;28;20017;-72
2022/12/26 09:06:11;;;;;;;8.43;3.78;;;13.60;85.20;;;;;;5048423;28;20083;-72
2022/12/26 09:08:37;;;;;;;11.98;4.50;;;13.60;85.00;;;;;;5049482;28;20041;-72
2022/12/26 09:11:05;;;;;;;7.38;3.53;;;13.70;85.10;;;;;;5049265;28;20049;-74
2022/12/26 09:13:33;;;;;;;12.90;3.88;;;13.70;85.30;;;;;;5049092;28;20029;-75
2022/12/26 09:16:08;;;;;;;7.18;3.65;;;13.70;84.60;;;;;;5048589;28;20033;-74
2022/12/26 09:18:34;;;;;;;9.60;3.80;;;13.80;85.00;;;;;;5049457;28;20138;-75
2022/12/26 09:21:02;;;;;;;12.60;4.47;;;13.80;84.70;;;;;;5049105;28;20120;-74
2022/12/26 09:23:28;;;;;;;6.75;3.50;;;13.80;84.60;;;;;;5049201;28;20096;-73
2022/12/26 09:25:54;;;;;;;7.68;3.63;;;13.90;84.90;;;;;;5048901;28;20045;-74
2022/12/26 09:28:20;;;;;;;11.30;3.67;;;13.90;84.30;;;;;;5032205;28;20037;-74
2022/12/26 09:30:45;;;;;;;6.70;3.38;;;13.90;84.70;;;;;;5028916;28;20041;-74
2022/12/26 09:33:11;;;;;;;7.43;3.30;;;13.90;84.40;;;;;;5028562;28;20481;-73
2022/12/26 09:35:40;;;;;;;12.47;3.73;;;14.00;84.20;;;;;;5029013;28;20025;-73
2022/12/26 09:38:06;;;;;;;8.40;3.38;;;14.00;84.60;;;;;;5029174;28;20034;-72
2022/12/26 09:40:46;;;;;;;9.97;4.70;;;14.00;83.40;;;;;;5028779;28;20025;-72
2022/12/26 09:43:28;;;;;;;9.63;3.50;;;14.00;84.20;;;;;;5028630;28;20407;-72
2022/12/26 09:46:22;;;;;;;12.90;4.28;;;14.00;83.90;;;;;;5029051;28;20053;-71
2022/12/26 09:48:56;;;;;;;13.48;3.97;;;14.00;83.90;;;;;;5028475;28;20146;-72
2022/12/26 09:51:23;;;;;;;10.10;3.58;;;14.00;83.50;;;;;;5028723;28;20029;-73
2022/12/26 09:53:49;;;;;;;8.85;3.63;;;14.00;84.00;;;;;;5028648;28;20025;-72
2022/12/26 09:56:17;;;;;;;7.23;4.23;;;14.10;83.40;;;;;;5042035;28;20025;-72
2022/12/26 09:58:52;;;;;;;10.20;3.70;;;14.10;83.10;;;;;;5048319;28;20037;-72
2022/12/26 10:01:22;;;;;;;13.30;4.00;;;14.10;83.10;;;;;;5045487;28;20025;-71
2022/12/26 10:03:52;;;;;;;12.70;4.55;;;14.20;83.30;;;;;;5047571;28;20024;-71
2022/12/26 10:06:18;;;;;;;8.90;4.07;;;14.20;83.30;;;;;;5047636;28;20021;-71
2022/12/26 10:09:09;;;;;;;6.67;3.67;;;14.20;83.20;;;;;;5047199;28;20043;-71
2022/12/26 10:11:56;;;;;;;12.93;3.95;;;14.30;82.90;;;;;;5012273;28;20095;-71
2022/12/26 10:14:40;;;;;;;8.98;4.00;;;14.30;84.20;;;;;;5045379;28;20032;-71
2022/12/26 10:17:13;;;;;;;9.48;4.15;;;14.40;82.20;;;;;;5048401;28;20047;-71
2022/12/26 10:20:00;;;;;;;12.10;4.45;;;14.40;82.90;;;;;;5048523;28;20017;-71
2022/12/26 10:22:31;;;;;;;8.23;3.63;;;14.40;83.20;;;;;;5048563;28;20040;-71
2022/12/26 10:25:00;;;;;;;9.65;3.47;;;14.50;81.90;;;;;;5048543;28;20075;-71
2022/12/26 10:27:28;;;;;;;6.40;3.70;;;14.50;82.70;;;;;;5048396;28;20020;-72
2022/12/26 10:29:56;;;;;;;8.65;3.65;;;14.60;81.70;;;;;;5048184;28;20037;-71
2022/12/26 10:32:33;;;;;;;14.98;5.78;;;14.50;81.90;;;;;;5047456;28;20021;-72
2022/12/26 10:35:00;;;;;;;12.50;3.72;;;14.60;81.90;;;;;;5046447;28;20488;-71
2022/12/26 10:37:39;;;;;;;10.50;4.10;;;14.50;82.80;;;;;;5047928;28;20032;-72
2022/12/26 10:40:23;;;;;;;7.30;3.92;;;14.60;81.90;;;;;;5047386;28;20033;-72
2022/12/26 10:42:54;;;;;;;7.15;3.47;;;14.70;81.60;;;;;;5047585;28;20032;-72
2022/12/26 10:45:31;;;;;;;10.65;3.50;;;14.70;81.20;;;;;;5047621;28;20037;-72
2022/12/26 10:47:57;;;;;;;8.50;3.30;;;14.70;80.70;;;;;;5047635;28;20060;-72
2022/12/26 10:50:29;;;;;;;10.63;4.23;;;14.80;80.90;;;;;;5041493;28;20045;-72
2022/12/26 10:52:57;;;;;;;10.82;4.00;;;14.80;80.40;;;;;;5031157;28;20033;-72
2022/12/26 10:55:28;;;;;;;8.30;3.25;;;14.80;80.70;;;;;;5042133;28;20095;-73
2022/12/26 10:57:54;;;;;;;7.82;3.95;;;14.80;80.50;;;;;;5047735;28;20029;-73
2022/12/26 11:00:26;;;;;;;9.68;3.55;;;14.80;81.50;;;;;;5047309;28;20861;-73
2022/12/26 11:03:02;;;;;;;8.07;4.03;;;14.80;81.20;;;;;;5048003;28;20098;-72
2022/12/26 11:05:28;;;;;;;8.93;3.28;;;14.80;81.10;;;;;;5047553;28;20025;-73
2022/12/26 11:08:04;;;;;;;9.63;3.50;;;14.80;81.90;;;;;;5047715;28;20400;-72
2022/12/26 11:10:30;;;;;;;9.83;3.90;;;14.80;81.80;;;;;;5047091;28;20037;-72
2022/12/26 11:12:59;;;;;;;7.70;3.77;;;14.70;81.00;;;;;;5046936;28;20242;-72
2022/12/26 11:15:34;;;;;;;13.55;4.32;;;14.80;82.00;;;;;;5046691;28;20116;-72
2022/12/26 11:18:39;;;;;;;8.25;3.72;;;14.70;81.80;;;;;;5047514;28;20032;-72
2022/12/26 11:21:17;;;;;;;8.40;3.67;;;14.70;80.50;;;;;;5044013;28;20067;-72
2022/12/26 11:23:47;;;;;;;10.55;3.80;;;14.60;80.70;;;;;;5047711;28;20036;-72
2022/12/26 11:26:20;;;;;;;8.70;3.83;;;14.60;81.70;;;;;;5049921;28;20090;-72
2022/12/26 11:28:46;;;;;;;8.30;4.03;;;14.60;81.40;;;;;;5051245;28;20061;-72
2022/12/26 11:31:25;;;;;;;7.83;3.47;;;14.60;82.60;;;;;;5050356;28;20075;-72
2022/12/26 11:33:52;;;;;;;9.70;3.72;;;14.60;80.90;;;;;;5032688;28;20032;-72
2022/12/26 11:36:22;;;;;;;8.38;3.53;;;14.60;82.10;;;;;;5030549;28;20056;-72
2022/12/26 11:38:53;;;;;;;11.43;3.88;;;14.60;81.90;;;;;;5030454;28;20045;-72
2022/12/26 11:41:40;;;;;;;9.13;4.45;;;14.60;81.30;;;;;;5030346;28;20029;-71
2022/12/26 11:44:15;;;;;;;15.13;3.83;;;14.60;80.80;;;;;;5031140;28;20489;-71
2022/12/26 11:46:42;;;;;;;6.63;3.55;;;14.60;81.30;;;;;;5031156;28;20024;-71
2022/12/26 11:49:34;;;;;;;9.88;3.55;;;14.60;81.10;;;;;;5031184;28;20030;-71
2022/12/26 11:52:21;;;;;;;6.60;3.08;;;14.60;81.60;;;;;;5029338;28;20496;-72
2022/12/26 11:54:48;;;;;;;6.57;3.38;;;14.60;80.80;;;;;;5029710;28;20045;-71
2022/12/26 11:57:19;;;;;;;6.45;3.10;;;14.70;80.90;;;;;;5029741;28;20029;-71
2022/12/26 11:59:45;;;;;;;5.65;3.42;;;14.70;81.10;;;;;;5029874;28;20392;-71
2022/12/26 12:02:14;;;;;;;11.43;3.22;;;14.70;81.00;;;;;;5030042;28;20477;-71
2022/12/26 12:04:40;;;;;;;8.07;3.03;;;14.70;81.00;;;;;;5043065;28;20024;-71
2022/12/26 12:07:11;;;;;;;17.87;4.70;;;14.70;81.30;;;;;;5049964;28;20029;-71
2022/12/26 12:10:08;;;;;;;9.13;3.35;;;14.80;80.60;;;;;;5049242;28;20068;-71
2022/12/26 12:12:48;;;;;;;13.07;3.85;;;14.80;80.80;;;;;;5041388;28;20115;-72
2022/12/26 12:15:36;;;;;;;9.98;3.42;;;14.90;80.00;;;;;;5049086;28;20131;-72
2022/12/26 12:18:15;;;;;;;5.50;3.42;;;15.00;79.80;;;;;;5050448;28;20032;-72
2022/12/26 12:21:07;;;;;;;6.35;3.65;;;15.00;79.40;;;;;;5049563;28;20029;-71
2022/12/26 12:23:49;;;;;;;9.88;3.45;;;15.00;79.90;;;;;;5049086;28;20021;-72
2022/12/26 12:26:25;;;;;;;7.28;3.30;;;15.00;79.20;;;;;;5049072;28;20548;-72
2022/12/26 12:28:59;;;;;;;11.50;3.63;;;15.00;79.80;;;;;;5049352;28;20381;-72
2022/12/26 12:31:55;;;;;;;16.42;4.13;;;15.10;79.40;;;;;;5049111;28;20037;-73
2022/12/26 12:34:42;;;;;;;7.05;3.53;;;15.00;79.30;;;;;;5048400;28;20055;-74
2022/12/26 12:37:27;;;;;;;8.15;2.92;;;15.00;79.10;;;;;;5042210;28;20496;-73
2022/12/26 12:40:24;;;;;;;10.18;3.40;;;15.00;78.90;;;;;;5031315;28;20103;-73
2022/12/26 12:43:12;;;;;;;8.85;3.33;;;15.00;79.00;;;;;;5047895;28;20108;-73
2022/12/26 12:45:50;;;;;;;7.82;2.83;;;15.00;78.90;;;;;;5046967;28;20052;-72
2022/12/26 12:48:34;;;;;;;;;;;15.00;79.10;;;;;;5049522;28;20174;-73
2022/12/26 12:51:14;;;;;;;5.43;2.92;;;15.10;79.10;;;;;;5044577;28;20291;-73
2022/12/26 12:54:37;;;;;;;6.07;3.25;;;15.00;79.10;;;;;;5040512;28;20028;-72
2022/12/26 12:57:03;;;;;;;8.05;3.63;;;15.00;78.20;;;;;;5023182;28;20090;-72
2022/12/26 12:59:31;;;;;;;5.20;3.00;;;15.00;79.80;;;;;;5025736;28;20026;-72
2022/12/26 13:02:04;;;;;;;9.68;3.47;;;15.00;79.90;;;;;;5028275;28;20041;-72
2022/12/26 13:04:38;;;;;;;8.30;3.72;;;14.90;79.40;;;;;;5042123;28;20104;-72
2022/12/26 13:07:10;;;;;;;6.90;3.40;;;14.90;79.70;;;;;;5049582;28;20078;-73
2022/12/26 13:09:46;;;;;;;8.98;3.42;;;14.90;79.40;;;;;;5046760;28;20142;-72
2022/12/26 13:12:20;;;;;;;9.18;3.80;;;14.80;80.00;;;;;;5043927;28;20025;-72
2022/12/26 13:15:03;;;;;;;6.45;3.65;;;14.80;79.70;;;;;;5045384;28;20744;-73
2022/12/26 13:17:57;;;;;;;8.65;4.07;;;14.80;80.00;;;;;;5046641;28;20039;-71
2022/12/26 13:20:31;;;;;;;12.93;4.70;;;14.80;80.50;;;;;;5043784;28;20110;-71
2022/12/26 13:26:29;;;;;;;8.35;4.40;;;14.80;82.50;;;;;;5047550;28;20176;-71
2022/12/26 13:29:16;;;;;;;10.57;4.75;;;14.80;84.00;;;;;;5009504;28;20044;-71
2022/12/26 13:31:43;;;;;;;11.90;5.00;;;14.90;84.00;;;;;;5047971;28;20452;-72
2022/12/26 13:34:15;;;;;;;13.80;6.32;;;15.10;84.80;;;;;;5045948;28;20108;-70
2022/12/26 13:36:44;;;;;;;9.55;4.60;;;15.30;83.70;;;;;;5046322;28;20025;-71
2022/12/26 13:39:18;;;;;;;10.90;5.15;;;15.30;84.00;;;;;;5046926;28;20056;-72
2022/12/26 13:45:36;;;;;;;11.35;5.20;;;15.10;83.90;;;;;;5028931;28;20087;-71
2022/12/26 13:48:26;;;;;;;14.30;4.35;;;15.10;83.80;;;;;;5047322;28;20025;-71
2022/12/26 13:50:58;;;;;;;12.95;5.10;;;15.10;83.70;;;;;;5017854;28;20037;-71
2022/12/26 13:53:24;;;;;;;12.00;4.55;;;15.00;84.60;;;;;;5046337;28;20029;-72
2022/12/26 13:56:03;;;;;;;12.63;4.40;;;15.00;83.20;;;;;;5039080;28;20021;-71
2022/12/26 13:58:47;;;;;;;8.30;4.30;;;15.00;84.10;;;;;;5047515;28;20025;-71
2022/12/26 14:01:31;;;;;;;7.53;4.07;;;15.10;84.10;;;;;;5046813;28;20021;-71
2022/12/26 14:04:12;;;;;;;8.50;4.22;;;15.00;84.10;;;;;;5048249;28;20039;-71
2022/12/26 14:07:03;;;;;;;8.70;4.15;;;15.00;82.90;;;;;;5047530;28;20032;-72
2022/12/26 14:09:51;;;;;;;12.82;3.90;;;15.00;83.60;;;;;;5048164;28;20484;-71
2022/12/26 14:12:32;;;;;;;10.27;4.32;;;15.10;84.20;;;;;;5046375;28;20037;-71
2022/12/26 14:15:17;;;;;;;9.48;4.43;;;15.00;82.10;;;;;;5045018;28;20071;-71
2022/12/26 14:18:20;;;;;;;8.43;3.95;;;15.00;83.00;;;;;;5046985;28;20029;-71
2022/12/26 14:21:24;;;;;;;12.45;4.40;;;15.00;81.50;;;;;;5043390;28;20244;-74
2022/12/26 14:24:09;;;;;;;9.60;4.40;;;15.00;83.20;;;;;;5027837;28;20044;-71
2022/12/26 14:26:43;;;;;;;9.05;3.95;;;14.90;83.30;;;;;;5034507;28;20043;-71
2022/12/26 14:29:27;;;;;;;7.97;4.70;;;14.80;84.10;;;;;;5044229;28;20044;-71
2022/12/26 14:31:59;;;;;;;14.45;5.78;;;14.80;84.80;;;;;;5039089;28;20040;-71
2022/12/26 14:34:58;;;;;;;16.10;5.35;;;14.70;84.90;;;;;;5046885;28;20039;-71
2022/12/26 14:37:38;;;;;;;10.10;4.63;;;14.70;85.40;;;;;;5047333;28;20029;-71
2022/12/26 14:40:26;;;;;;;12.00;5.03;;;14.60;85.50;;;;;;5045001;28;20143;-71
2022/12/26 14:43:25;;;;;;;11.95;5.55;;;14.60;86.40;;;;;;5038879;28;20112;-71
2022/12/26 14:45:52;;;;;;;10.75;5.97;;;14.50;86.70;;;;;;5047234;28;20445;-71
2022/12/26 14:48:17;;;;;;;12.35;5.80;;;14.50;87.30;;;;;;5047869;28;20044;-71
2022/12/26 14:50:45;;;;;;;11.30;5.57;;;14.50;87.60;;;;;;5047620;28;20079;-71
2022/12/26 14:53:16;;;;;;;16.70;6.55;;;14.40;87.80;;;;;;5047898;28;20098;-71
2022/12/26 14:55:49;;;;;;;11.95;5.65;;;14.40;88.00;;;;;;5047002;28;20414;-71
2022/12/26 14:58:30;;;;;;;14.25;5.97;;;14.40;88.60;;;;;;5046160;28;20031;-70
2022/12/26 15:01:17;;;;;;;19.52;7.22;;;14.30;90.00;;;;;;5048367;28;20021;-70
2022/12/26 15:04:13;;;;;;;19.33;8.00;;;14.30;90.60;;;;;;5050933;28;20082;-70
2022/12/26 15:07:20;;;;;;;14.43;7.43;;;14.10;91.30;;;;;;5049279;28;20307;-70
2022/12/26 15:10:04;;;;;;;20.50;8.07;;;14.00;91.60;;;;;;5047091;28;20036;-70
2022/12/26 15:13:06;;;;;;;22.65;8.55;;;13.90;92.00;;;;;;5047618;28;20029;-70
2022/12/26 15:16:08;;;;;;;22.38;8.35;;;13.80;92.20;;;;;;5047825;28;20182;-73
2022/12/26 15:18:55;;;;;;;16.83;8.80;;;13.80;92.30;;;;;;5046239;28;20497;-73